sensor_id;sensor_type;location;lat;lon;timestamp;temperature;humidity
68556;HTU21D;55544;51.032;5.866;2022-11-21T00:01:54;8.07;84.59
68556;HTU21D;55544;51.032;5.866;2022-11-21T00:04:20;8.12;84.39
68556;HTU21D;55544;51.032;5.866;2022-11-21T00:06:45;8.11;84.20
68556;HTU21D;55544;51.032;5.866;2022-11-21T00:09:11;8.16;84.04
68556;HTU21D;55544;51.032;5.866;2022-11-21T00:11:37;8.12;84.09
68556;HTU21D;55544;51.032;5.866;2022-11-21T00:14:02;8.02;84.45
68556;HTU21D;55544;51.032;5.866;2022-11-21T00:16:28;8.04;84.65
68556;HTU21D;55544;51.032;5.866;2022-11-21T00:18:53;8.04;84.42
68556;HTU21D;55544;51.032;5.866;2022-11-21T00:21:19;7.98;84.75
68556;HTU21D;55544;51.032;5.866;2022-11-21T00:23:46;8.08;84.38
68556;HTU21D;55544;51.032;5.866;2022-11-21T00:26:14;8.08;84.47
68556;HTU21D;55544;51.032;5.866;2022-11-21T00:28:41;8.04;84.73
68556;HTU21D;55544;51.032;5.866;2022-11-21T00:31:06;8.07;84.39
68556;HTU21D;55544;51.032;5.866;2022-11-21T00:33:36;8.06;84.54
68556;HTU21D;55544;51.032;5.866;2022-11-21T00:36:09;8.07;84.10
68556;HTU21D;55544;51.032;5.866;2022-11-21T00:38:36;8.08;83.84
68556;HTU21D;55544;51.032;5.866;2022-11-21T00:41:02;8.15;83.81
68556;HTU21D;55544;51.032;5.866;2022-11-21T00:43:27;8.20;83.40
68556;HTU21D;55544;51.032;5.866;2022-11-21T00:45:53;8.22;82.99
68556;HTU21D;55544;51.032;5.866;2022-11-21T00:48:19;8.27;82.57
68556;HTU21D;55544;51.032;5.866;2022-11-21T00:50:47;8.26;82.87
68556;HTU21D;55544;51.032;5.866;2022-11-21T00:53:13;8.27;82.99
68556;HTU21D;55544;51.032;5.866;2022-11-21T00:55:39;8.30;82.91
68556;HTU21D;55544;51.032;5.866;2022-11-21T00:58:06;8.27;82.94
68556;HTU21D;55544;51.032;5.866;2022-11-21T01:00:31;8.23;83.03
68556;HTU21D;55544;51.032;5.866;2022-11-21T01:02:57;8.20;83.06
68556;HTU21D;55544;51.032;5.866;2022-11-21T01:05:23;8.16;83.38
68556;HTU21D;55544;51.032;5.866;2022-11-21T01:07:48;8.09;83.54
68556;HTU21D;55544;51.032;5.866;2022-11-21T01:10:14;8.05;83.63
68556;HTU21D;55544;51.032;5.866;2022-11-21T01:12:40;7.97;83.88
68556;HTU21D;55544;51.032;5.866;2022-11-21T01:15:06;8.00;83.73
68556;HTU21D;55544;51.032;5.866;2022-11-21T01:17:32;7.98;83.61
68556;HTU21D;55544;51.032;5.866;2022-11-21T01:19:58;7.94;83.85
68556;HTU21D;55544;51.032;5.866;2022-11-21T01:22:23;7.88;83.86
68556;HTU21D;55544;51.032;5.866;2022-11-21T01:24:49;7.88;84.08
68556;HTU21D;55544;51.032;5.866;2022-11-21T01:27:15;7.83;84.27
68556;HTU21D;55544;51.032;5.866;2022-11-21T01:29:40;7.77;84.49
68556;HTU21D;55544;51.032;5.866;2022-11-21T01:32:06;7.81;84.42
68556;HTU21D;55544;51.032;5.866;2022-11-21T01:34:32;7.76;84.48
68556;HTU21D;55544;51.032;5.866;2022-11-21T01:36:58;7.79;84.26
68556;HTU21D;55544;51.032;5.866;2022-11-21T01:39:23;7.81;84.32
68556;HTU21D;55544;51.032;5.866;2022-11-21T01:41:49;7.83;84.13
68556;HTU21D;55544;51.032;5.866;2022-11-21T01:44:19;7.81;84.11
68556;HTU21D;55544;51.032;5.866;2022-11-21T01:46:46;7.76;84.39
68556;HTU21D;55544;51.032;5.866;2022-11-21T01:49:25;7.79;84.40
68556;HTU21D;55544;51.032;5.866;2022-11-21T01:52:16;7.84;84.13
68556;HTU21D;55544;51.032;5.866;2022-11-21T01:54:57;7.86;84.03
68556;HTU21D;55544;51.032;5.866;2022-11-21T01:57:39;7.88;83.72
68556;HTU21D;55544;51.032;5.866;2022-11-21T02:02:45;7.86;83.77
68556;HTU21D;55544;51.032;5.866;2022-11-21T02:05:34;7.87;83.55
68556;HTU21D;55544;51.032;5.866;2022-11-21T02:08:06;7.81;83.68
68556;HTU21D;55544;51.032;5.866;2022-11-21T02:10:38;7.87;83.29
68556;HTU21D;55544;51.032;5.866;2022-11-21T02:13:06;7.74;83.59
68556;HTU21D;55544;51.032;5.866;2022-11-21T02:15:32;7.74;83.81
68556;HTU21D;55544;51.032;5.866;2022-11-21T02:17:58;7.70;83.95
68556;HTU21D;55544;51.032;5.866;2022-11-21T02:20:25;7.65;84.08
68556;HTU21D;55544;51.032;5.866;2022-11-21T02:26:07;7.70;84.07
68556;HTU21D;55544;51.032;5.866;2022-11-21T02:28:33;7.61;84.44
68556;HTU21D;55544;51.032;5.866;2022-11-21T02:30:59;7.61;84.64
68556;HTU21D;55544;51.032;5.866;2022-11-21T02:33:25;7.62;84.69
68556;HTU21D;55544;51.032;5.866;2022-11-21T02:35:58;7.62;84.79
68556;HTU21D;55544;51.032;5.866;2022-11-21T02:38:31;7.60;84.82
68556;HTU21D;55544;51.032;5.866;2022-11-21T02:41:10;7.62;84.62
68556;HTU21D;55544;51.032;5.866;2022-11-21T02:43:53;7.59;84.68
68556;HTU21D;55544;51.032;5.866;2022-11-21T02:46:20;7.55;84.77
68556;HTU21D;55544;51.032;5.866;2022-11-21T02:48:45;7.56;84.90
68556;HTU21D;55544;51.032;5.866;2022-11-21T02:51:11;7.54;85.17
68556;HTU21D;55544;51.032;5.866;2022-11-21T02:53:37;7.55;85.44
68556;HTU21D;55544;51.032;5.866;2022-11-21T02:56:03;7.60;85.24
68556;HTU21D;55544;51.032;5.866;2022-11-21T02:58:28;7.58;85.23
68556;HTU21D;55544;51.032;5.866;2022-11-21T03:00:54;7.64;85.33
68556;HTU21D;55544;51.032;5.866;2022-11-21T03:03:20;7.67;85.26
68556;HTU21D;55544;51.032;5.866;2022-11-21T03:05:46;7.69;85.46
68556;HTU21D;55544;51.032;5.866;2022-11-21T03:08:13;7.73;85.52
68556;HTU21D;55544;51.032;5.866;2022-11-21T03:10:38;7.81;85.28
68556;HTU21D;55544;51.032;5.866;2022-11-21T03:13:04;7.86;84.93
68556;HTU21D;55544;51.032;5.866;2022-11-21T03:15:32;7.90;84.61
68556;HTU21D;55544;51.032;5.866;2022-11-21T03:17:58;7.86;84.41
68556;HTU21D;55544;51.032;5.866;2022-11-21T03:20:28;7.84;84.39
68556;HTU21D;55544;51.032;5.866;2022-11-21T03:22:54;7.82;84.32
68556;HTU21D;55544;51.032;5.866;2022-11-21T03:25:20;7.73;84.53
68556;HTU21D;55544;51.032;5.866;2022-11-21T03:27:49;7.68;84.54
68556;HTU21D;55544;51.032;5.866;2022-11-21T03:30:16;7.58;84.78
68556;HTU21D;55544;51.032;5.866;2022-11-21T03:32:41;7.56;85.23
68556;HTU21D;55544;51.032;5.866;2022-11-21T03:35:07;7.54;85.38
68556;HTU21D;55544;51.032;5.866;2022-11-21T03:37:33;7.57;85.26
68556;HTU21D;55544;51.032;5.866;2022-11-21T03:39:59;7.52;85.54
68556;HTU21D;55544;51.032;5.866;2022-11-21T03:42:24;7.47;85.84
68556;HTU21D;55544;51.032;5.866;2022-11-21T03:44:50;7.43;86.28
68556;HTU21D;55544;51.032;5.866;2022-11-21T03:47:16;7.41;86.31
68556;HTU21D;55544;51.032;5.866;2022-11-21T03:49:41;7.41;86.37
68556;HTU21D;55544;51.032;5.866;2022-11-21T03:52:07;7.37;86.36
68556;HTU21D;55544;51.032;5.866;2022-11-21T03:54:32;7.32;86.43
68556;HTU21D;55544;51.032;5.866;2022-11-21T03:56:58;7.35;86.56
68556;HTU21D;55544;51.032;5.866;2022-11-21T03:59:24;7.38;86.07
68556;HTU21D;55544;51.032;5.866;2022-11-21T04:01:50;7.35;86.17
68556;HTU21D;55544;51.032;5.866;2022-11-21T04:04:17;7.33;86.48
68556;HTU21D;55544;51.032;5.866;2022-11-21T04:06:42;7.30;86.73
68556;HTU21D;55544;51.032;5.866;2022-11-21T04:09:08;7.25;87.00
68556;HTU21D;55544;51.032;5.866;2022-11-21T04:11:34;7.29;86.86
68556;HTU21D;55544;51.032;5.866;2022-11-21T04:13:59;7.25;86.94
68556;HTU21D;55544;51.032;5.866;2022-11-21T04:16:25;7.17;87.28
68556;HTU21D;55544;51.032;5.866;2022-11-21T04:18:50;7.19;87.33
68556;HTU21D;55544;51.032;5.866;2022-11-21T04:21:16;7.18;87.20
68556;HTU21D;55544;51.032;5.866;2022-11-21T04:23:42;7.14;87.33
68556;HTU21D;55544;51.032;5.866;2022-11-21T04:26:07;7.15;87.45
68556;HTU21D;55544;51.032;5.866;2022-11-21T04:28:33;7.12;87.62
68556;HTU21D;55544;51.032;5.866;2022-11-21T04:31:04;7.14;87.41
68556;HTU21D;55544;51.032;5.866;2022-11-21T04:33:30;7.10;87.41
68556;HTU21D;55544;51.032;5.866;2022-11-21T04:35:55;7.05;87.51
68556;HTU21D;55544;51.032;5.866;2022-11-21T04:38:21;7.04;87.59
68556;HTU21D;55544;51.032;5.866;2022-11-21T04:40:47;7.04;87.61
68556;HTU21D;55544;51.032;5.866;2022-11-21T04:43:12;7.04;87.70
68556;HTU21D;55544;51.032;5.866;2022-11-21T04:45:38;7.00;87.83
68556;HTU21D;55544;51.032;5.866;2022-11-21T04:48:04;6.99;87.91
68556;HTU21D;55544;51.032;5.866;2022-11-21T04:50:29;7.04;87.99
68556;HTU21D;55544;51.032;5.866;2022-11-21T04:52:56;7.04;88.22
68556;HTU21D;55544;51.032;5.866;2022-11-21T04:55:30;7.00;88.73
68556;HTU21D;55544;51.032;5.866;2022-11-21T04:57:56;7.07;88.86
68556;HTU21D;55544;51.032;5.866;2022-11-21T05:00:22;7.10;88.92
68556;HTU21D;55544;51.032;5.866;2022-11-21T05:02:48;7.14;88.92
68556;HTU21D;55544;51.032;5.866;2022-11-21T05:05:14;7.18;89.12
68556;HTU21D;55544;51.032;5.866;2022-11-21T05:07:39;7.18;89.17
68556;HTU21D;55544;51.032;5.866;2022-11-21T05:10:06;7.25;88.89
68556;HTU21D;55544;51.032;5.866;2022-11-21T05:12:32;7.26;88.92
68556;HTU21D;55544;51.032;5.866;2022-11-21T05:15:17;7.28;88.74
68556;HTU21D;55544;51.032;5.866;2022-11-21T05:17:43;7.30;88.78
68556;HTU21D;55544;51.032;5.866;2022-11-21T05:20:09;7.28;88.86
68556;HTU21D;55544;51.032;5.866;2022-11-21T05:22:35;7.23;89.17
68556;HTU21D;55544;51.032;5.866;2022-11-21T05:25:01;7.26;89.05
68556;HTU21D;55544;51.032;5.866;2022-11-21T05:27:27;7.28;89.26
68556;HTU21D;55544;51.032;5.866;2022-11-21T05:29:53;7.27;89.42
68556;HTU21D;55544;51.032;5.866;2022-11-21T05:32:19;7.27;89.58
68556;HTU21D;55544;51.032;5.866;2022-11-21T05:34:45;7.27;89.73
68556;HTU21D;55544;51.032;5.866;2022-11-21T05:37:11;7.35;89.61
68556;HTU21D;55544;51.032;5.866;2022-11-21T05:39:36;7.39;89.41
68556;HTU21D;55544;51.032;5.866;2022-11-21T05:42:02;7.38;89.47
68556;HTU21D;55544;51.032;5.866;2022-11-21T05:44:28;7.41;89.65
68556;HTU21D;55544;51.032;5.866;2022-11-21T05:46:53;7.50;89.41
68556;HTU21D;55544;51.032;5.866;2022-11-21T05:49:19;7.45;89.37
68556;HTU21D;55544;51.032;5.866;2022-11-21T05:51:45;7.45;89.25
68556;HTU21D;55544;51.032;5.866;2022-11-21T05:54:15;7.42;89.38
68556;HTU21D;55544;51.032;5.866;2022-11-21T05:56:41;7.43;89.38
68556;HTU21D;55544;51.032;5.866;2022-11-21T05:59:09;7.40;89.50
68556;HTU21D;55544;51.032;5.866;2022-11-21T06:01:35;7.39;89.75
68556;HTU21D;55544;51.032;5.866;2022-11-21T06:04:20;7.37;90.05
68556;HTU21D;55544;51.032;5.866;2022-11-21T06:06:45;7.42;89.99
68556;HTU21D;55544;51.032;5.866;2022-11-21T06:09:11;7.44;89.91
68556;HTU21D;55544;51.032;5.866;2022-11-21T06:11:37;7.47;89.77
68556;HTU21D;55544;51.032;5.866;2022-11-21T06:14:02;7.47;89.60
68556;HTU21D;55544;51.032;5.866;2022-11-21T06:16:29;7.48;89.62
68556;HTU21D;55544;51.032;5.866;2022-11-21T06:18:54;7.46;89.48
68556;HTU21D;55544;51.032;5.866;2022-11-21T06:21:25;7.47;89.41
68556;HTU21D;55544;51.032;5.866;2022-11-21T06:23:54;7.45;89.61
68556;HTU21D;55544;51.032;5.866;2022-11-21T06:26:23;7.47;89.72
68556;HTU21D;55544;51.032;5.866;2022-11-21T06:28:49;7.48;89.83
68556;HTU21D;55544;51.032;5.866;2022-11-21T06:31:24;7.53;89.83
68556;HTU21D;55544;51.032;5.866;2022-11-21T06:33:57;7.53;89.67
68556;HTU21D;55544;51.032;5.866;2022-11-21T06:36:25;7.54;89.67
68556;HTU21D;55544;51.032;5.866;2022-11-21T06:38:53;7.55;89.18
68556;HTU21D;55544;51.032;5.866;2022-11-21T06:41:23;7.61;89.07
68556;HTU21D;55544;51.032;5.866;2022-11-21T06:43:49;7.53;89.53
68556;HTU21D;55544;51.032;5.866;2022-11-21T06:46:15;7.55;89.34
68556;HTU21D;55544;51.032;5.866;2022-11-21T06:48:42;7.52;89.52
68556;HTU21D;55544;51.032;5.866;2022-11-21T06:51:17;7.53;89.53
68556;HTU21D;55544;51.032;5.866;2022-11-21T06:53:43;7.47;89.51
68556;HTU21D;55544;51.032;5.866;2022-11-21T06:56:09;7.50;89.25
68556;HTU21D;55544;51.032;5.866;2022-11-21T06:58:35;7.50;89.28
68556;HTU21D;55544;51.032;5.866;2022-11-21T07:01:06;7.48;89.41
68556;HTU21D;55544;51.032;5.866;2022-11-21T07:03:33;7.50;89.40
68556;HTU21D;55544;51.032;5.866;2022-11-21T07:05:59;7.49;89.09
68556;HTU21D;55544;51.032;5.866;2022-11-21T07:08:30;7.55;88.97
68556;HTU21D;55544;51.032;5.866;2022-11-21T07:11:04;7.55;88.99
68556;HTU21D;55544;51.032;5.866;2022-11-21T07:13:30;7.49;89.15
68556;HTU21D;55544;51.032;5.866;2022-11-21T07:16:05;7.43;89.20
68556;HTU21D;55544;51.032;5.866;2022-11-21T07:18:33;7.49;89.12
68556;HTU21D;55544;51.032;5.866;2022-11-21T07:21:00;7.48;89.03
68556;HTU21D;55544;51.032;5.866;2022-11-21T07:23:28;7.46;88.80
68556;HTU21D;55544;51.032;5.866;2022-11-21T07:25:54;7.49;88.97
68556;HTU21D;55544;51.032;5.866;2022-11-21T07:28:20;7.52;88.87
68556;HTU21D;55544;51.032;5.866;2022-11-21T07:30:46;7.54;88.90
68556;HTU21D;55544;51.032;5.866;2022-11-21T07:33:12;7.47;88.92
68556;HTU21D;55544;51.032;5.866;2022-11-21T07:35:37;7.56;88.67
68556;HTU21D;55544;51.032;5.866;2022-11-21T07:38:03;7.57;88.67
68556;HTU21D;55544;51.032;5.866;2022-11-21T07:40:29;7.63;88.38
68556;HTU21D;55544;51.032;5.866;2022-11-21T07:43:03;7.58;88.71
68556;HTU21D;55544;51.032;5.866;2022-11-21T07:45:30;7.64;88.44
68556;HTU21D;55544;51.032;5.866;2022-11-21T07:48:01;7.61;88.46
68556;HTU21D;55544;51.032;5.866;2022-11-21T07:50:27;7.64;88.39
68556;HTU21D;55544;51.032;5.866;2022-11-21T07:53:03;7.73;87.93
68556;HTU21D;55544;51.032;5.866;2022-11-21T07:55:29;7.65;88.12
68556;HTU21D;55544;51.032;5.866;2022-11-21T07:58:06;7.73;87.80
68556;HTU21D;55544;51.032;5.866;2022-11-21T08:00:34;7.69;88.20
68556;HTU21D;55544;51.032;5.866;2022-11-21T08:03:00;7.76;88.06
68556;HTU21D;55544;51.032;5.866;2022-11-21T08:05:26;7.86;87.44
68556;HTU21D;55544;51.032;5.866;2022-11-21T08:07:52;7.79;87.85
68556;HTU21D;55544;51.032;5.866;2022-11-21T08:10:18;7.89;87.51
68556;HTU21D;55544;51.032;5.866;2022-11-21T08:12:44;7.92;87.41
68556;HTU21D;55544;51.032;5.866;2022-11-21T08:15:11;8.03;86.77
68556;HTU21D;55544;51.032;5.866;2022-11-21T08:17:37;8.43;85.62
68556;HTU21D;55544;51.032;5.866;2022-11-21T08:20:07;9.66;82.47
68556;HTU21D;55544;51.032;5.866;2022-11-21T08:22:42;9.69;81.38
68556;HTU21D;55544;51.032;5.866;2022-11-21T08:25:09;9.62;82.01
68556;HTU21D;55544;51.032;5.866;2022-11-21T08:27:37;9.63;80.98
68556;HTU21D;55544;51.032;5.866;2022-11-21T08:30:07;9.68;80.96
68556;HTU21D;55544;51.032;5.866;2022-11-21T08:32:33;9.74;80.52
68556;HTU21D;55544;51.032;5.866;2022-11-21T08:34:59;9.79;80.29
68556;HTU21D;55544;51.032;5.866;2022-11-21T08:37:26;9.89;80.36
68556;HTU21D;55544;51.032;5.866;2022-11-21T08:39:53;9.92;79.76
68556;HTU21D;55544;51.032;5.866;2022-11-21T08:42:18;9.91;79.40
68556;HTU21D;55544;51.032;5.866;2022-11-21T08:44:44;9.89;79.51
68556;HTU21D;55544;51.032;5.866;2022-11-21T08:47:10;9.88;79.28
68556;HTU21D;55544;51.032;5.866;2022-11-21T08:49:35;9.85;78.73
68556;HTU21D;55544;51.032;5.866;2022-11-21T08:52:01;9.84;78.57
68556;HTU21D;55544;51.032;5.866;2022-11-21T08:54:27;9.84;78.29
68556;HTU21D;55544;51.032;5.866;2022-11-21T08:56:52;9.77;78.25
68556;HTU21D;55544;51.032;5.866;2022-11-21T08:59:18;9.70;78.11
68556;HTU21D;55544;51.032;5.866;2022-11-21T09:01:44;9.63;78.37
68556;HTU21D;55544;51.032;5.866;2022-11-21T09:04:10;9.64;78.62
68556;HTU21D;55544;51.032;5.866;2022-11-21T09:06:36;9.63;78.58
68556;HTU21D;55544;51.032;5.866;2022-11-21T09:09:04;9.63;78.08
68556;HTU21D;55544;51.032;5.866;2022-11-21T09:11:31;9.57;77.82
68556;HTU21D;55544;51.032;5.866;2022-11-21T09:13:57;9.56;77.63
68556;HTU21D;55544;51.032;5.866;2022-11-21T09:16:42;9.51;77.66
68556;HTU21D;55544;51.032;5.866;2022-11-21T09:19:26;9.53;77.92
68556;HTU21D;55544;51.032;5.866;2022-11-21T09:21:52;9.61;78.30
68556;HTU21D;55544;51.032;5.866;2022-11-21T09:24:18;9.68;77.94
68556;HTU21D;55544;51.032;5.866;2022-11-21T09:26:44;9.71;78.39
68556;HTU21D;55544;51.032;5.866;2022-11-21T09:29:10;9.81;77.90
68556;HTU21D;55544;51.032;5.866;2022-11-21T09:31:39;9.84;77.82
68556;HTU21D;55544;51.032;5.866;2022-11-21T09:34:05;9.94;77.74
68556;HTU21D;55544;51.032;5.866;2022-11-21T09:36:30;10.03;77.40
68556;HTU21D;55544;51.032;5.866;2022-11-21T09:38:56;10.15;76.90
68556;HTU21D;55544;51.032;5.866;2022-11-21T09:47:34;10.34;76.08
68556;HTU21D;55544;51.032;5.866;2022-11-21T09:53:06;10.52;75.91
68556;HTU21D;55544;51.032;5.866;2022-11-21T10:00:56;10.81;74.68
68556;HTU21D;55544;51.032;5.866;2022-11-21T10:03:26;10.96;73.99
68556;HTU21D;55544;51.032;5.866;2022-11-21T10:06:02;11.02;73.09
68556;HTU21D;55544;51.032;5.866;2022-11-21T10:17:42;10.95;73.27
68556;HTU21D;55544;51.032;5.866;2022-11-21T10:20:26;11.04;73.68
68556;HTU21D;55544;51.032;5.866;2022-11-21T10:26:05;11.07;72.98
68556;HTU21D;55544;51.032;5.866;2022-11-21T10:31:19;11.14;71.40
68556;HTU21D;55544;51.032;5.866;2022-11-21T10:33:48;11.13;71.42
68556;HTU21D;55544;51.032;5.866;2022-11-21T10:38:47;11.19;69.85
68556;HTU21D;55544;51.032;5.866;2022-11-21T10:41:39;11.30;69.72
68556;HTU21D;55544;51.032;5.866;2022-11-21T10:44:24;11.38;69.71
68556;HTU21D;55544;51.032;5.866;2022-11-21T10:49:39;11.58;69.20
68556;HTU21D;55544;51.032;5.866;2022-11-21T10:52:14;11.63;67.41
68556;HTU21D;55544;51.032;5.866;2022-11-21T10:57:30;11.53;69.39
68556;HTU21D;55544;51.032;5.866;2022-11-21T11:00:04;11.40;69.53
68556;HTU21D;55544;51.032;5.866;2022-11-21T11:05:24;10.95;70.13
68556;HTU21D;55544;51.032;5.866;2022-11-21T11:08:08;10.78;70.45
68556;HTU21D;55544;51.032;5.866;2022-11-21T11:14:05;11.27;69.13
68556;HTU21D;55544;51.032;5.866;2022-11-21T11:16:43;11.31;70.00
68556;HTU21D;55544;51.032;5.866;2022-11-21T11:29:19;11.07;70.01
68556;HTU21D;55544;51.032;5.866;2022-11-21T11:35:07;11.15;68.97
68556;HTU21D;55544;51.032;5.866;2022-11-21T11:37:41;10.96;70.35
68556;HTU21D;55544;51.032;5.866;2022-11-21T11:40:15;10.99;70.10
68556;HTU21D;55544;51.032;5.866;2022-11-21T11:42:49;10.93;70.25
68556;HTU21D;55544;51.032;5.866;2022-11-21T11:45:50;11.15;70.23
68556;HTU21D;55544;51.032;5.866;2022-11-21T11:48:38;11.32;69.83
68556;HTU21D;55544;51.032;5.866;2022-11-21T11:51:23;11.40;69.16
68556;HTU21D;55544;51.032;5.866;2022-11-21T11:54:00;11.47;68.78
68556;HTU21D;55544;51.032;5.866;2022-11-21T11:56:32;11.49;68.91
68556;HTU21D;55544;51.032;5.866;2022-11-21T12:04:23;11.88;67.81
68556;HTU21D;55544;51.032;5.866;2022-11-21T12:07:23;11.85;68.16
68556;HTU21D;55544;51.032;5.866;2022-11-21T12:10:15;11.84;68.60
68556;HTU21D;55544;51.032;5.866;2022-11-21T12:12:53;11.91;67.39
68556;HTU21D;55544;51.032;5.866;2022-11-21T12:15:26;11.66;66.98
68556;HTU21D;55544;51.032;5.866;2022-11-21T12:21:08;11.47;69.30
68556;HTU21D;55544;51.032;5.866;2022-11-21T12:29:02;11.72;67.55
68556;HTU21D;55544;51.032;5.866;2022-11-21T12:31:50;11.66;67.81
68556;HTU21D;55544;51.032;5.866;2022-11-21T12:43:01;11.18;67.78
68556;HTU21D;55544;51.032;5.866;2022-11-21T12:57:09;11.22;68.31
68556;HTU21D;55544;51.032;5.866;2022-11-21T13:05:32;11.44;68.89
68556;HTU21D;55544;51.032;5.866;2022-11-21T13:08:10;11.49;67.85
68556;HTU21D;55544;51.032;5.866;2022-11-21T13:10:43;11.44;67.95
68556;HTU21D;55544;51.032;5.866;2022-11-21T13:13:31;11.23;68.46
68556;HTU21D;55544;51.032;5.866;2022-11-21T13:16:10;11.19;68.94
68556;HTU21D;55544;51.032;5.866;2022-11-21T13:18:44;11.30;68.97
68556;HTU21D;55544;51.032;5.866;2022-11-21T13:24:07;11.36;68.60
68556;HTU21D;55544;51.032;5.866;2022-11-21T13:29:10;11.37;68.39
68556;HTU21D;55544;51.032;5.866;2022-11-21T13:31:37;11.28;68.56
68556;HTU21D;55544;51.032;5.866;2022-11-21T13:34:04;11.27;68.87
68556;HTU21D;55544;51.032;5.866;2022-11-21T13:44:38;11.57;68.56
68556;HTU21D;55544;51.032;5.866;2022-11-21T13:52:31;11.48;69.08
68556;HTU21D;55544;51.032;5.866;2022-11-21T14:03:17;11.71;68.73
68556;HTU21D;55544;51.032;5.866;2022-11-21T14:08:25;11.92;68.48
68556;HTU21D;55544;51.032;5.866;2022-11-21T14:10:53;12.01;68.18
68556;HTU21D;55544;51.032;5.866;2022-11-21T14:16:03;12.07;67.75
68556;HTU21D;55544;51.032;5.866;2022-11-21T14:18:31;12.11;67.91
68556;HTU21D;55544;51.032;5.866;2022-11-21T14:20:59;12.05;67.59
68556;HTU21D;55544;51.032;5.866;2022-11-21T14:23:30;11.94;67.85
68556;HTU21D;55544;51.032;5.866;2022-11-21T14:26:18;11.79;68.28
68556;HTU21D;55544;51.032;5.866;2022-11-21T14:28:46;11.72;68.91
68556;HTU21D;55544;51.032;5.866;2022-11-21T14:31:13;11.66;69.20
68556;HTU21D;55544;51.032;5.866;2022-11-21T14:36:23;11.58;69.71
68556;HTU21D;55544;51.032;5.866;2022-11-21T14:38:52;11.63;69.65
68556;HTU21D;55544;51.032;5.866;2022-11-21T14:46:24;11.63;69.26
68556;HTU21D;55544;51.032;5.866;2022-11-21T14:48:51;11.63;69.64
68556;HTU21D;55544;51.032;5.866;2022-11-21T14:51:23;11.63;69.93
68556;HTU21D;55544;51.032;5.866;2022-11-21T14:53:51;11.70;69.81
68556;HTU21D;55544;51.032;5.866;2022-11-21T14:56:32;11.75;69.83
68556;HTU21D;55544;51.032;5.866;2022-11-21T14:59:02;11.83;69.81
68556;HTU21D;55544;51.032;5.866;2022-11-21T15:01:33;11.92;69.84
68556;HTU21D;55544;51.032;5.866;2022-11-21T15:04:05;12.01;69.67
68556;HTU21D;55544;51.032;5.866;2022-11-21T15:06:41;12.10;69.23
68556;HTU21D;55544;51.032;5.866;2022-11-21T15:09:13;12.14;69.04
68556;HTU21D;55544;51.032;5.866;2022-11-21T15:14:21;12.05;69.10
68556;HTU21D;55544;51.032;5.866;2022-11-21T15:16:51;12.11;69.09
68556;HTU21D;55544;51.032;5.866;2022-11-21T15:19:21;12.04;68.87
68556;HTU21D;55544;51.032;5.866;2022-11-21T15:21:49;11.94;69.13
68556;HTU21D;55544;51.032;5.866;2022-11-21T15:24:25;11.91;69.24
68556;HTU21D;55544;51.032;5.866;2022-11-21T15:26:52;11.92;69.16
68556;HTU21D;55544;51.032;5.866;2022-11-21T15:29:19;11.97;69.19
68556;HTU21D;55544;51.032;5.866;2022-11-21T15:31:49;12.02;68.99
68556;HTU21D;55544;51.032;5.866;2022-11-21T15:34:29;12.00;68.71
68556;HTU21D;55544;51.032;5.866;2022-11-21T15:37:13;11.92;68.42
68556;HTU21D;55544;51.032;5.866;2022-11-21T15:39:47;11.67;69.03
68556;HTU21D;55544;51.032;5.866;2022-11-21T15:47:27;11.62;69.57
68556;HTU21D;55544;51.032;5.866;2022-11-21T15:49:53;11.47;69.55
68556;HTU21D;55544;51.032;5.866;2022-11-21T15:52:19;11.36;70.11
68556;HTU21D;55544;51.032;5.866;2022-11-21T15:54:45;11.34;70.52
68556;HTU21D;55544;51.032;5.866;2022-11-21T15:57:11;11.41;70.45
68556;HTU21D;55544;51.032;5.866;2022-11-21T15:59:38;11.48;70.21
68556;HTU21D;55544;51.032;5.866;2022-11-21T16:02:04;11.56;70.23
68556;HTU21D;55544;51.032;5.866;2022-11-21T16:04:29;11.59;70.06
68556;HTU21D;55544;51.032;5.866;2022-11-21T16:06:55;11.60;70.08
68556;HTU21D;55544;51.032;5.866;2022-11-21T16:09:21;11.62;70.01
68556;HTU21D;55544;51.032;5.866;2022-11-21T16:11:47;11.67;69.86
68556;HTU21D;55544;51.032;5.866;2022-11-21T16:14:14;11.67;69.63
68556;HTU21D;55544;51.032;5.866;2022-11-21T16:16:41;11.63;69.81
68556;HTU21D;55544;51.032;5.866;2022-11-21T16:19:10;11.60;69.87
68556;HTU21D;55544;51.032;5.866;2022-11-21T16:21:36;11.62;69.43
68556;HTU21D;55544;51.032;5.866;2022-11-21T16:24:02;11.52;69.77
68556;HTU21D;55544;51.032;5.866;2022-11-21T16:26:28;11.42;70.50
68556;HTU21D;55544;51.032;5.866;2022-11-21T16:28:55;11.34;71.17
68556;HTU21D;55544;51.032;5.866;2022-11-21T16:31:27;11.40;71.46
68556;HTU21D;55544;51.032;5.866;2022-11-21T16:33:54;11.46;71.16
68556;HTU21D;55544;51.032;5.866;2022-11-21T16:36:22;11.46;70.64
68556;HTU21D;55544;51.032;5.866;2022-11-21T16:38:48;11.49;70.53
68556;HTU21D;55544;51.032;5.866;2022-11-21T16:41:16;11.45;70.11
68556;HTU21D;55544;51.032;5.866;2022-11-21T16:43:52;11.42;70.29
68556;HTU21D;55544;51.032;5.866;2022-11-21T16:46:20;11.44;70.21
68556;HTU21D;55544;51.032;5.866;2022-11-21T16:48:46;11.45;70.00
68556;HTU21D;55544;51.032;5.866;2022-11-21T16:51:16;11.43;69.74
68556;HTU21D;55544;51.032;5.866;2022-11-21T16:53:45;11.40;69.90
68556;HTU21D;55544;51.032;5.866;2022-11-21T16:56:11;11.38;70.00
68556;HTU21D;55544;51.032;5.866;2022-11-21T16:58:39;11.31;70.03
68556;HTU21D;55544;51.032;5.866;2022-11-21T17:01:23;11.27;70.39
68556;HTU21D;55544;51.032;5.866;2022-11-21T17:03:50;11.27;70.35
68556;HTU21D;55544;51.032;5.866;2022-11-21T17:06:22;11.27;70.34
68556;HTU21D;55544;51.032;5.866;2022-11-21T17:08:48;11.24;70.25
68556;HTU21D;55544;51.032;5.866;2022-11-21T17:11:17;11.19;70.51
68556;HTU21D;55544;51.032;5.866;2022-11-21T17:13:44;11.14;70.74
68556;HTU21D;55544;51.032;5.866;2022-11-21T17:16:12;11.10;70.92
68556;HTU21D;55544;51.032;5.866;2022-11-21T17:18:39;11.12;71.00
68556;HTU21D;55544;51.032;5.866;2022-11-21T17:21:07;11.12;70.87
68556;HTU21D;55544;51.032;5.866;2022-11-21T17:23:36;11.03;70.97
68556;HTU21D;55544;51.032;5.866;2022-11-21T17:26:10;11.00;71.35
68556;HTU21D;55544;51.032;5.866;2022-11-21T17:28:37;10.98;71.48
68556;HTU21D;55544;51.032;5.866;2022-11-21T17:31:13;10.92;71.58
68556;HTU21D;55544;51.032;5.866;2022-11-21T17:33:40;10.89;71.93
68556;HTU21D;55544;51.032;5.866;2022-11-21T17:36:10;10.87;71.91
68556;HTU21D;55544;51.032;5.866;2022-11-21T17:38:37;10.85;72.09
68556;HTU21D;55544;51.032;5.866;2022-11-21T17:41:10;10.85;72.07
68556;HTU21D;55544;51.032;5.866;2022-11-21T17:43:37;10.80;72.18
68556;HTU21D;55544;51.032;5.866;2022-11-21T17:46:09;10.73;72.25
68556;HTU21D;55544;51.032;5.866;2022-11-21T17:48:36;10.70;72.29
68556;HTU21D;55544;51.032;5.866;2022-11-21T17:51:11;10.73;72.17
68556;HTU21D;55544;51.032;5.866;2022-11-21T17:53:39;10.79;72.27
68556;HTU21D;55544;51.032;5.866;2022-11-21T17:56:14;10.84;72.02
68556;HTU21D;55544;51.032;5.866;2022-11-21T17:58:40;10.89;71.77
68556;HTU21D;55544;51.032;5.866;2022-11-21T18:01:07;10.95;71.51
68556;HTU21D;55544;51.032;5.866;2022-11-21T18:03:35;10.95;71.57
68556;HTU21D;55544;51.032;5.866;2022-11-21T18:06:06;10.95;71.67
68556;HTU21D;55544;51.032;5.866;2022-11-21T18:08:34;10.94;71.78